sensor_id;sensor_type;location;lat;lon;timestamp;temperature;humidity
1880;DHT22;49285;49.002;8.390;2023-05-10T00:00:05;15.80;99.90
1880;DHT22;49285;49.002;8.390;2023-05-10T00:02:31;15.80;99.90
1880;DHT22;49285;49.002;8.390;2023-05-10T00:04:56;15.80;99.90
1880;DHT22;49285;49.002;8.390;2023-05-10T00:07:22;15.80;99.90
1880;DHT22;49285;49.002;8.390;2023-05-10T00:09:47;15.80;99.90
1880;DHT22;49285;49.002;8.390;2023-05-10T00:12:13;15.80;99.90
1880;DHT22;49285;49.002;8.390;2023-05-10T00:14:38;15.80;99.90
1880;DHT22;49285;49.002;8.390;2023-05-10T00:17:04;15.90;99.90
1880;DHT22;49285;49.002;8.390;2023-05-10T00:19:30;15.90;99.90
1880;DHT22;49285;49.002;8.390;2023-05-10T00:21:55;15.90;99.90
1880;DHT22;49285;49.002;8.390;2023-05-10T00:24:21;15.80;99.90
1880;DHT22;49285;49.002;8.390;2023-05-10T00:26:47;15.80;99.90
1880;DHT22;49285;49.002;8.390;2023-05-10T00:29:12;15.90;99.90
1880;DHT22;49285;49.002;8.390;2023-05-10T00:31:38;15.90;99.90
1880;DHT22;49285;49.002;8.390;2023-05-10T00:34:03;15.70;99.90
1880;DHT22;49285;49.002;8.390;2023-05-10T00:36:29;15.80;99.90
1880;DHT22;49285;49.002;8.390;2023-05-10T00:38:54;15.80;99.90
1880;DHT22;49285;49.002;8.390;2023-05-10T00:41:20;15.80;99.90
1880;DHT22;49285;49.002;8.390;2023-05-10T00:43:46;15.80;99.90
1880;DHT22;49285;49.002;8.390;2023-05-10T00:46:12;15.80;99.90
1880;DHT22;49285;49.002;8.390;2023-05-10T00:48:39;15.90;99.90
1880;DHT22;49285;49.002;8.390;2023-05-10T00:51:05;15.70;99.90
1880;DHT22;49285;49.002;8.390;2023-05-10T00:53:31;15.80;99.90
1880;DHT22;49285;49.002;8.390;2023-05-10T00:55:58;15.80;99.90
1880;DHT22;49285;49.002;8.390;2023-05-10T00:58:24;15.80;99.90
1880;DHT22;49285;49.002;8.390;2023-05-10T01:00:54;15.80;99.90
1880;DHT22;49285;49.002;8.390;2023-05-10T01:03:21;15.80;99.90
1880;DHT22;49285;49.002;8.390;2023-05-10T01:05:46;15.80;99.90
1880;DHT22;49285;49.002;8.390;2023-05-10T01:08:12;15.70;99.90
1880;DHT22;49285;49.002;8.390;2023-05-10T01:10:37;15.60;99.90
1880;DHT22;49285;49.002;8.390;2023-05-10T01:13:03;15.70;99.90
1880;DHT22;49285;49.002;8.390;2023-05-10T01:15:29;15.70;99.90
1880;DHT22;49285;49.002;8.390;2023-05-10T01:17:56;15.60;99.90
1880;DHT22;49285;49.002;8.390;2023-05-10T01:20:22;15.70;99.90
1880;DHT22;49285;49.002;8.390;2023-05-10T01:34:22;15.50;99.90
1880;DHT22;49285;49.002;8.390;2023-05-10T01:36:56;15.60;99.90
1880;DHT22;49285;49.002;8.390;2023-05-10T01:39:28;15.60;99.90
1880;DHT22;49285;49.002;8.390;2023-05-10T01:42:03;15.70;99.90
1880;DHT22;49285;49.002;8.390;2023-05-10T01:44:46;15.70;99.90
1880;DHT22;49285;49.002;8.390;2023-05-10T01:47:20;15.60;99.90
1880;DHT22;49285;49.002;8.390;2023-05-10T01:49:53;15.60;99.90
1880;DHT22;49285;49.002;8.390;2023-05-10T01:52:25;15.60;99.90
1880;DHT22;49285;49.002;8.390;2023-05-10T01:54:55;15.60;99.90
1880;DHT22;49285;49.002;8.390;2023-05-10T01:57:27;15.60;99.90
1880;DHT22;49285;49.002;8.390;2023-05-10T01:59:56;15.60;99.90
1880;DHT22;49285;49.002;8.390;2023-05-10T02:02:22;15.60;99.90
1880;DHT22;49285;49.002;8.390;2023-05-10T02:04:50;15.70;99.90
1880;DHT22;49285;49.002;8.390;2023-05-10T02:07:18;15.70;99.90
1880;DHT22;49285;49.002;8.390;2023-05-10T02:09:45;15.60;99.90
1880;DHT22;49285;49.002;8.390;2023-05-10T02:12:14;15.70;99.90
1880;DHT22;49285;49.002;8.390;2023-05-10T02:14:41;15.60;99.90
1880;DHT22;49285;49.002;8.390;2023-05-10T02:17:08;15.70;99.90
1880;DHT22;49285;49.002;8.390;2023-05-10T02:19:36;15.70;99.90
1880;DHT22;49285;49.002;8.390;2023-05-10T02:22:03;15.60;99.90
1880;DHT22;49285;49.002;8.390;2023-05-10T02:24:29;15.60;99.90
1880;DHT22;49285;49.002;8.390;2023-05-10T02:26:56;15.60;99.90
1880;DHT22;49285;49.002;8.390;2023-05-10T02:29:24;15.60;99.90
1880;DHT22;49285;49.002;8.390;2023-05-10T02:31:52;15.60;99.90
1880;DHT22;49285;49.002;8.390;2023-05-10T02:34:20;15.60;99.90
1880;DHT22;49285;49.002;8.390;2023-05-10T02:36:47;15.60;99.90
1880;DHT22;49285;49.002;8.390;2023-05-10T02:39:14;15.60;99.90
1880;DHT22;49285;49.002;8.390;2023-05-10T02:41:41;15.60;99.90
1880;DHT22;49285;49.002;8.390;2023-05-10T02:44:08;15.60;99.90
1880;DHT22;49285;49.002;8.390;2023-05-10T02:46:35;15.60;99.90
1880;DHT22;49285;49.002;8.390;2023-05-10T02:49:03;15.60;99.90
1880;DHT22;49285;49.002;8.390;2023-05-10T02:51:32;15.60;99.90
1880;DHT22;49285;49.002;8.390;2023-05-10T02:54:04;15.60;99.90
1880;DHT22;49285;49.002;8.390;2023-05-10T02:56:34;15.60;99.90
1880;DHT22;49285;49.002;8.390;2023-05-10T02:59:01;15.60;99.90
1880;DHT22;49285;49.002;8.390;2023-05-10T03:01:27;15.50;99.90
1880;DHT22;49285;49.002;8.390;2023-05-10T03:03:52;15.50;99.90
1880;DHT22;49285;49.002;8.390;2023-05-10T03:06:18;15.40;99.90
1880;DHT22;49285;49.002;8.390;2023-05-10T03:08:45;15.40;99.90
1880;DHT22;49285;49.002;8.390;2023-05-10T03:11:23;15.30;99.90
1880;DHT22;49285;49.002;8.390;2023-05-10T03:14:04;15.30;99.90
1880;DHT22;49285;49.002;8.390;2023-05-10T03:16:42;15.30;99.90
1880;DHT22;49285;49.002;8.390;2023-05-10T03:19:22;15.30;99.90
1880;DHT22;49285;49.002;8.390;2023-05-10T03:21:51;15.30;99.90
1880;DHT22;49285;49.002;8.390;2023-05-10T03:24:20;15.30;99.90
1880;DHT22;49285;49.002;8.390;2023-05-10T03:26:47;15.20;99.90
1880;DHT22;49285;49.002;8.390;2023-05-10T03:29:14;15.20;99.90
1880;DHT22;49285;49.002;8.390;2023-05-10T03:31:40;15.30;99.90
1880;DHT22;49285;49.002;8.390;2023-05-10T03:34:06;15.30;99.90
1880;DHT22;49285;49.002;8.390;2023-05-10T03:36:32;15.30;99.90
1880;DHT22;49285;49.002;8.390;2023-05-10T03:38:58;15.20;99.90
1880;DHT22;49285;49.002;8.390;2023-05-10T03:41:24;15.20;99.90
1880;DHT22;49285;49.002;8.390;2023-05-10T03:43:50;15.20;99.90
1880;DHT22;49285;49.002;8.390;2023-05-10T03:46:17;15.20;99.90
1880;DHT22;49285;49.002;8.390;2023-05-10T03:48:43;15.20;99.90
1880;DHT22;49285;49.002;8.390;2023-05-10T03:51:08;15.20;99.90
1880;DHT22;49285;49.002;8.390;2023-05-10T03:53:34;15.20;99.90
1880;DHT22;49285;49.002;8.390;2023-05-10T03:55:59;15.30;99.90
1880;DHT22;49285;49.002;8.390;2023-05-10T03:58:25;15.30;99.90
1880;DHT22;49285;49.002;8.390;2023-05-10T04:00:51;15.30;99.90
1880;DHT22;49285;49.002;8.390;2023-05-10T04:03:17;15.30;99.90
1880;DHT22;49285;49.002;8.390;2023-05-10T04:05:43;15.30;99.90
1880;DHT22;49285;49.002;8.390;2023-05-10T04:08:08;15.20;99.90
1880;DHT22;49285;49.002;8.390;2023-05-10T04:10:34;15.20;99.90
1880;DHT22;49285;49.002;8.390;2023-05-10T04:12:59;15.20;99.90
1880;DHT22;49285;49.002;8.390;2023-05-10T04:15:25;15.30;99.90
1880;DHT22;49285;49.002;8.390;2023-05-10T04:17:50;15.30;99.90
1880;DHT22;49285;49.002;8.390;2023-05-10T04:20:16;15.30;99.90
1880;DHT22;49285;49.002;8.390;2023-05-10T04:22:42;15.20;99.90
1880;DHT22;49285;49.002;8.390;2023-05-10T04:25:08;15.30;99.90
1880;DHT22;49285;49.002;8.390;2023-05-10T04:27:33;15.40;99.90
1880;DHT22;49285;49.002;8.390;2023-05-10T04:29:59;15.30;99.90
1880;DHT22;49285;49.002;8.390;2023-05-10T04:32:24;15.40;99.90
1880;DHT22;49285;49.002;8.390;2023-05-10T04:34:50;15.40;99.90
1880;DHT22;49285;49.002;8.390;2023-05-10T04:37:17;15.50;99.90
1880;DHT22;49285;49.002;8.390;2023-05-10T04:39:43;15.50;99.90
1880;DHT22;49285;49.002;8.390;2023-05-10T04:42:08;15.40;99.90
1880;DHT22;49285;49.002;8.390;2023-05-10T04:44:34;15.50;99.90
1880;DHT22;49285;49.002;8.390;2023-05-10T04:47:00;15.50;99.90
1880;DHT22;49285;49.002;8.390;2023-05-10T04:49:27;15.60;99.90
1880;DHT22;49285;49.002;8.390;2023-05-10T04:51:53;15.60;99.90
1880;DHT22;49285;49.002;8.390;2023-05-10T04:54:19;15.60;99.90
1880;DHT22;49285;49.002;8.390;2023-05-10T04:56:44;15.60;99.90
1880;DHT22;49285;49.002;8.390;2023-05-10T04:59:10;15.60;99.90
1880;DHT22;49285;49.002;8.390;2023-05-10T05:01:35;15.70;99.90
1880;DHT22;49285;49.002;8.390;2023-05-10T05:04:01;15.60;99.90
1880;DHT22;49285;49.002;8.390;2023-05-10T05:06:27;15.60;99.90
1880;DHT22;49285;49.002;8.390;2023-05-10T05:08:52;15.70;99.90
1880;DHT22;49285;49.002;8.390;2023-05-10T05:11:18;15.50;99.90
1880;DHT22;49285;49.002;8.390;2023-05-10T05:13:43;15.50;99.90
1880;DHT22;49285;49.002;8.390;2023-05-10T05:16:09;15.60;99.90
1880;DHT22;49285;49.002;8.390;2023-05-10T05:18:36;15.70;99.90
1880;DHT22;49285;49.002;8.390;2023-05-10T05:21:01;15.70;99.90
1880;DHT22;49285;49.002;8.390;2023-05-10T05:23:27;15.70;99.90
1880;DHT22;49285;49.002;8.390;2023-05-10T05:25:53;15.70;99.90
1880;DHT22;49285;49.002;8.390;2023-05-10T05:28:21;15.80;99.90
1880;DHT22;49285;49.002;8.390;2023-05-10T05:30:47;15.80;99.90
1880;DHT22;49285;49.002;8.390;2023-05-10T05:33:14;15.80;99.90
1880;DHT22;49285;49.002;8.390;2023-05-10T05:35:40;15.90;99.90
1880;DHT22;49285;49.002;8.390;2023-05-10T05:38:06;15.90;99.90
1880;DHT22;49285;49.002;8.390;2023-05-10T05:40:32;15.90;99.90
1880;DHT22;49285;49.002;8.390;2023-05-10T05:42:57;15.90;99.90
1880;DHT22;49285;49.002;8.390;2023-05-10T05:45:23;15.90;99.90
1880;DHT22;49285;49.002;8.390;2023-05-10T05:47:48;15.90;99.90
1880;DHT22;49285;49.002;8.390;2023-05-10T05:50:14;15.90;99.90
1880;DHT22;49285;49.002;8.390;2023-05-10T05:52:39;15.90;99.90
1880;DHT22;49285;49.002;8.390;2023-05-10T05:55:05;16.00;99.90
1880;DHT22;49285;49.002;8.390;2023-05-10T05:57:31;16.10;99.90
1880;DHT22;49285;49.002;8.390;2023-05-10T05:59:56;16.00;99.90
1880;DHT22;49285;49.002;8.390;2023-05-10T06:02:22;16.10;99.90
1880;DHT22;49285;49.002;8.390;2023-05-10T06:04:47;16.10;99.90
1880;DHT22;49285;49.002;8.390;2023-05-10T06:07:13;16.10;99.90
1880;DHT22;49285;49.002;8.390;2023-05-10T06:09:39;16.10;99.90
1880;DHT22;49285;49.002;8.390;2023-05-10T06:12:04;16.10;99.90
1880;DHT22;49285;49.002;8.390;2023-05-10T06:14:30;16.10;99.90
1880;DHT22;49285;49.002;8.390;2023-05-10T06:16:55;16.10;99.90
1880;DHT22;49285;49.002;8.390;2023-05-10T06:19:21;16.20;99.90
1880;DHT22;49285;49.002;8.390;2023-05-10T06:21:47;16.20;99.90
1880;DHT22;49285;49.002;8.390;2023-05-10T06:24:12;16.20;99.90
1880;DHT22;49285;49.002;8.390;2023-05-10T06:26:38;16.20;99.90
1880;DHT22;49285;49.002;8.390;2023-05-10T06:29:03;16.20;99.90
1880;DHT22;49285;49.002;8.390;2023-05-10T06:31:29;16.20;99.90
1880;DHT22;49285;49.002;8.390;2023-05-10T06:33:54;16.20;99.90
1880;DHT22;49285;49.002;8.390;2023-05-10T06:36:20;16.30;99.90
1880;DHT22;49285;49.002;8.390;2023-05-10T06:38:46;16.30;99.90
1880;DHT22;49285;49.002;8.390;2023-05-10T06:41:11;16.20;99.90
1880;DHT22;49285;49.002;8.390;2023-05-10T06:43:37;16.20;99.90
1880;DHT22;49285;49.002;8.390;2023-05-10T06:46:05;16.20;99.90
1880;DHT22;49285;49.002;8.390;2023-05-10T06:48:31;16.10;99.90
1880;DHT22;49285;49.002;8.390;2023-05-10T06:50:57;16.10;99.90
1880;DHT22;49285;49.002;8.390;2023-05-10T06:53:23;16.30;99.90
1880;DHT22;49285;49.002;8.390;2023-05-10T06:55:49;16.30;99.90
1880;DHT22;49285;49.002;8.390;2023-05-10T06:58:15;16.40;99.90
1880;DHT22;49285;49.002;8.390;2023-05-10T07:00:41;16.40;99.90
1880;DHT22;49285;49.002;8.390;2023-05-10T07:03:09;16.40;99.90
1880;DHT22;49285;49.002;8.390;2023-05-10T07:05:36;16.50;99.90
1880;DHT22;49285;49.002;8.390;2023-05-10T07:08:01;16.60;99.90
1880;DHT22;49285;49.002;8.390;2023-05-10T07:10:27;16.50;99.90
1880;DHT22;49285;49.002;8.390;2023-05-10T07:12:52;16.60;99.90
1880;DHT22;49285;49.002;8.390;2023-05-10T07:15:18;16.50;99.90
1880;DHT22;49285;49.002;8.390;2023-05-10T07:17:44;16.60;99.90
1880;DHT22;49285;49.002;8.390;2023-05-10T07:20:10;16.60;99.90
1880;DHT22;49285;49.002;8.390;2023-05-10T07:22:35;16.70;99.90
1880;DHT22;49285;49.002;8.390;2023-05-10T07:25:01;16.60;99.90
1880;DHT22;49285;49.002;8.390;2023-05-10T07:27:27;16.40;99.90
1880;DHT22;49285;49.002;8.390;2023-05-10T07:29:53;16.30;99.90
1880;DHT22;49285;49.002;8.390;2023-05-10T07:32:20;16.20;99.90
1880;DHT22;49285;49.002;8.390;2023-05-10T07:34:45;16.30;99.90
1880;DHT22;49285;49.002;8.390;2023-05-10T07:37:11;16.40;99.90
1880;DHT22;49285;49.002;8.390;2023-05-10T07:39:36;16.60;99.90
1880;DHT22;49285;49.002;8.390;2023-05-10T07:42:02;16.70;99.90
1880;DHT22;49285;49.002;8.390;2023-05-10T07:44:28;16.80;99.90
1880;DHT22;49285;49.002;8.390;2023-05-10T07:46:54;16.80;99.90
1880;DHT22;49285;49.002;8.390;2023-05-10T07:49:19;16.80;99.90
1880;DHT22;49285;49.002;8.390;2023-05-10T07:51:45;16.80;99.90
1880;DHT22;49285;49.002;8.390;2023-05-10T07:54:10;16.90;99.90
1880;DHT22;49285;49.002;8.390;2023-05-10T07:56:36;17.00;99.90
1880;DHT22;49285;49.002;8.390;2023-05-10T07:59:03;17.00;99.90
1880;DHT22;49285;49.002;8.390;2023-05-10T08:01:34;17.10;99.90
1880;DHT22;49285;49.002;8.390;2023-05-10T08:04:00;17.20;99.90
1880;DHT22;49285;49.002;8.390;2023-05-10T08:06:26;17.30;99.90
1880;DHT22;49285;49.002;8.390;2023-05-10T08:08:53;17.10;99.90
1880;DHT22;49285;49.002;8.390;2023-05-10T08:11:20;17.20;99.90
1880;DHT22;49285;49.002;8.390;2023-05-10T08:13:46;17.10;99.90
1880;DHT22;49285;49.002;8.390;2023-05-10T08:16:12;17.20;99.90
1880;DHT22;49285;49.002;8.390;2023-05-10T08:18:38;17.20;99.90
1880;DHT22;49285;49.002;8.390;2023-05-10T08:21:04;17.20;99.90
1880;DHT22;49285;49.002;8.390;2023-05-10T08:23:30;17.20;99.90
1880;DHT22;49285;49.002;8.390;2023-05-10T08:25:55;17.40;99.90
1880;DHT22;49285;49.002;8.390;2023-05-10T08:28:21;17.50;99.90
1880;DHT22;49285;49.002;8.390;2023-05-10T08:30:46;17.70;99.90
1880;DHT22;49285;49.002;8.390;2023-05-10T08:33:12;17.80;99.90
1880;DHT22;49285;49.002;8.390;2023-05-10T08:35:37;17.70;99.90
1880;DHT22;49285;49.002;8.390;2023-05-10T08:38:03;17.70;99.90
1880;DHT22;49285;49.002;8.390;2023-05-10T08:40:29;17.60;99.90
1880;DHT22;49285;49.002;8.390;2023-05-10T08:43:04;17.60;99.90
1880;DHT22;49285;49.002;8.390;2023-05-10T08:45:33;17.70;99.90
1880;DHT22;49285;49.002;8.390;2023-05-10T08:48:02;17.60;99.90
1880;DHT22;49285;49.002;8.390;2023-05-10T08:50:30;17.40;99.90
1880;DHT22;49285;49.002;8.390;2023-05-10T08:52:59;17.30;99.90
1880;DHT22;49285;49.002;8.390;2023-05-10T08:55:25;17.40;99.90
1880;DHT22;49285;49.002;8.390;2023-05-10T08:57:51;17.50;99.90
1880;DHT22;49285;49.002;8.390;2023-05-10T09:00:18;17.40;99.90
1880;DHT22;49285;49.002;8.390;2023-05-10T09:02:44;17.40;99.90
1880;DHT22;49285;49.002;8.390;2023-05-10T09:05:11;17.50;99.90
1880;DHT22;49285;49.002;8.390;2023-05-10T09:07:37;17.50;99.90
1880;DHT22;49285;49.002;8.390;2023-05-10T09:10:04;17.40;99.90
1880;DHT22;49285;49.002;8.390;2023-05-10T09:12:30;17.40;99.90
1880;DHT22;49285;49.002;8.390;2023-05-10T09:14:56;17.40;99.90
1880;DHT22;49285;49.002;8.390;2023-05-10T09:17:24;17.40;99.90
1880;DHT22;49285;49.002;8.390;2023-05-10T09:19:56;17.40;99.90
1880;DHT22;49285;49.002;8.390;2023-05-10T09:22:22;17.40;99.90
1880;DHT22;49285;49.002;8.390;2023-05-10T09:24:48;17.40;99.90
1880;DHT22;49285;49.002;8.390;2023-05-10T09:27:28;17.50;99.90
1880;DHT22;49285;49.002;8.390;2023-05-10T09:29:53;17.30;99.90
1880;DHT22;49285;49.002;8.390;2023-05-10T09:32:20;17.10;99.90
1880;DHT22;49285;49.002;8.390;2023-05-10T09:34:49;17.20;99.90
1880;DHT22;49285;49.002;8.390;2023-05-10T09:37:15;17.40;99.90
1880;DHT22;49285;49.002;8.390;2023-05-10T09:39:40;17.40;99.90
1880;DHT22;49285;49.002;8.390;2023-05-10T09:42:08;17.40;99.90
1880;DHT22;49285;49.002;8.390;2023-05-10T09:44:35;17.50;99.90
1880;DHT22;49285;49.002;8.390;2023-05-10T09:47:01;17.30;99.90
1880;DHT22;49285;49.002;8.390;2023-05-10T09:49:27;17.00;99.90
1880;DHT22;49285;49.002;8.390;2023-05-10T09:52:01;17.10;99.90
1880;DHT22;49285;49.002;8.390;2023-05-10T09:54:27;17.30;99.90
1880;DHT22;49285;49.002;8.390;2023-05-10T09:56:53;17.40;99.90
1880;DHT22;49285;49.002;8.390;2023-05-10T09:59:18;17.50;99.90
1880;DHT22;49285;49.002;8.390;2023-05-10T10:01:49;17.60;99.90
1880;DHT22;49285;49.002;8.390;2023-05-10T10:04:16;17.80;99.90
1880;DHT22;49285;49.002;8.390;2023-05-10T10:06:41;17.90;99.90
1880;DHT22;49285;49.002;8.390;2023-05-10T10:09:08;18.10;99.90
1880;DHT22;49285;49.002;8.390;2023-05-10T10:11:38;18.30;99.90
1880;DHT22;49285;49.002;8.390;2023-05-10T10:14:04;18.20;99.90
1880;DHT22;49285;49.002;8.390;2023-05-10T10:16:31;18.20;99.90
1880;DHT22;49285;49.002;8.390;2023-05-10T10:18:57;18.40;99.90
1880;DHT22;49285;49.002;8.390;2023-05-10T10:21:23;18.40;99.90
1880;DHT22;49285;49.002;8.390;2023-05-10T10:23:49;18.20;99.90
1880;DHT22;49285;49.002;8.390;2023-05-10T10:26:17;18.10;99.90
1880;DHT22;49285;49.002;8.390;2023-05-10T10:29:10;18.00;99.90
1880;DHT22;49285;49.002;8.390;2023-05-10T10:31:51;18.10;99.90
1880;DHT22;49285;49.002;8.390;2023-05-10T10:34:26;18.00;99.90
1880;DHT22;49285;49.002;8.390;2023-05-10T10:36:54;18.10;99.90
1880;DHT22;49285;49.002;8.390;2023-05-10T10:39:20;18.30;99.90
1880;DHT22;49285;49.002;8.390;2023-05-10T10:41:54;18.30;99.90
1880;DHT22;49285;49.002;8.390;2023-05-10T10:47:06;18.60;99.90
1880;DHT22;49285;49.002;8.390;2023-05-10T10:49:51;18.70;99.90
1880;DHT22;49285;49.002;8.390;2023-05-10T10:55:17;18.30;99.90
1880;DHT22;49285;49.002;8.390;2023-05-10T10:57:57;18.30;99.90
1880;DHT22;49285;49.002;8.390;2023-05-10T11:00:30;18.40;99.90
1880;DHT22;49285;49.002;8.390;2023-05-10T11:08:28;18.60;99.90
1880;DHT22;49285;49.002;8.390;2023-05-10T11:13:29;19.00;99.90
1880;DHT22;49285;49.002;8.390;2023-05-10T11:15:55;19.00;99.90
1880;DHT22;49285;49.002;8.390;2023-05-10T11:18:28;19.10;99.90
1880;DHT22;49285;49.002;8.390;2023-05-10T11:20:59;19.20;99.90
1880;DHT22;49285;49.002;8.390;2023-05-10T11:23:32;19.30;99.90
1880;DHT22;49285;49.002;8.390;2023-05-10T11:25:59;19.30;99.90
1880;DHT22;49285;49.002;8.390;2023-05-10T11:28:26;19.10;99.90
1880;DHT22;49285;49.002;8.390;2023-05-10T11:30:52;19.20;99.90
1880;DHT22;49285;49.002;8.390;2023-05-10T11:33:19;19.20;99.90
1880;DHT22;49285;49.002;8.390;2023-05-10T11:35:45;18.80;99.90
1880;DHT22;49285;49.002;8.390;2023-05-10T11:38:12;18.80;99.90
1880;DHT22;49285;49.002;8.390;2023-05-10T11:40:38;18.80;99.90
1880;DHT22;49285;49.002;8.390;2023-05-10T11:43:04;18.90;99.90
1880;DHT22;49285;49.002;8.390;2023-05-10T11:45:34;18.90;99.90
1880;DHT22;49285;49.002;8.390;2023-05-10T11:48:01;18.60;99.90
1880;DHT22;49285;49.002;8.390;2023-05-10T11:50:27;18.50;99.90
1880;DHT22;49285;49.002;8.390;2023-05-10T11:52:54;18.50;99.90
1880;DHT22;49285;49.002;8.390;2023-05-10T11:55:20;18.50;99.90
1880;DHT22;49285;49.002;8.390;2023-05-10T11:57:46;18.40;99.90
1880;DHT22;49285;49.002;8.390;2023-05-10T12:00:15;18.30;99.90
1880;DHT22;49285;49.002;8.390;2023-05-10T12:02:40;18.30;99.90
1880;DHT22;49285;49.002;8.390;2023-05-10T12:05:06;18.40;99.90
1880;DHT22;49285;49.002;8.390;2023-05-10T12:07:32;18.60;99.90
1880;DHT22;49285;49.002;8.390;2023-05-10T12:12:41;19.60;99.90
1880;DHT22;49285;49.002;8.390;2023-05-10T12:15:21;20.00;99.90
1880;DHT22;49285;49.002;8.390;2023-05-10T12:17:47;20.10;99.90
1880;DHT22;49285;49.002;8.390;2023-05-10T12:20:23;20.10;99.90
1880;DHT22;49285;49.002;8.390;2023-05-10T12:22:52;20.30;99.90
1880;DHT22;49285;49.002;8.390;2023-05-10T12:25:19;20.70;99.90
1880;DHT22;49285;49.002;8.390;2023-05-10T12:27:53;20.70;99.90
1880;DHT22;49285;49.002;8.390;2023-05-10T12:30:23;20.20;99.90
1880;DHT22;49285;49.002;8.390;2023-05-10T12:32:49;19.60;99.90
1880;DHT22;49285;49.002;8.390;2023-05-10T12:35:15;19.50;99.90
1880;DHT22;49285;49.002;8.390;2023-05-10T12:37:42;19.60;99.90
1880;DHT22;49285;49.002;8.390;2023-05-10T12:40:09;19.80;99.90
1880;DHT22;49285;49.002;8.390;2023-05-10T12:42:37;20.30;99.90
1880;DHT22;49285;49.002;8.390;2023-05-10T12:45:04;20.90;99.90
1880;DHT22;49285;49.002;8.390;2023-05-10T12:47:31;21.10;99.90
1880;DHT22;49285;49.002;8.390;2023-05-10T12:49:56;21.50;99.90
1880;DHT22;49285;49.002;8.390;2023-05-10T12:52:22;21.80;99.90
1880;DHT22;49285;49.002;8.390;2023-05-10T12:54:48;22.00;99.90
1880;DHT22;49285;49.002;8.390;2023-05-10T12:57:14;22.30;99.90
1880;DHT22;49285;49.002;8.390;2023-05-10T12:59:40;22.80;99.90
1880;DHT22;49285;49.002;8.390;2023-05-10T13:02:06;22.60;99.90
1880;DHT22;49285;49.002;8.390;2023-05-10T13:04:32;22.40;99.60
1880;DHT22;49285;49.002;8.390;2023-05-10T13:06:57;22.30;98.70
1880;DHT22;49285;49.002;8.390;2023-05-10T13:09:25;22.10;96.70
1880;DHT22;49285;49.002;8.390;2023-05-10T13:11:51;22.00;97.70
1880;DHT22;49285;49.002;8.390;2023-05-10T13:14:18;22.00;97.90
1880;DHT22;49285;49.002;8.390;2023-05-10T13:16:46;22.00;97.30
1880;DHT22;49285;49.002;8.390;2023-05-10T13:19:12;21.80;95.90
1880;DHT22;49285;49.002;8.390;2023-05-10T13:21:37;21.70;96.20
1880;DHT22;49285;49.002;8.390;2023-05-10T13:24:03;21.80;96.50
1880;DHT22;49285;49.002;8.390;2023-05-10T13:26:29;21.80;96.30
1880;DHT22;49285;49.002;8.390;2023-05-10T13:28:55;21.50;95.20
1880;DHT22;49285;49.002;8.390;2023-05-10T13:31:21;22.10;96.30
1880;DHT22;49285;49.002;8.390;2023-05-10T13:33:46;22.20;94.60
1880;DHT22;49285;49.002;8.390;2023-05-10T13:36:12;22.20;94.20
1880;DHT22;49285;49.002;8.390;2023-05-10T13:38:37;21.90;94.70
1880;DHT22;49285;49.002;8.390;2023-05-10T13:41:03;21.70;94.50
1880;DHT22;49285;49.002;8.390;2023-05-10T13:43:29;21.70;94.40
1880;DHT22;49285;49.002;8.390;2023-05-10T13:45:55;21.30;95.30
1880;DHT22;49285;49.002;8.390;2023-05-10T13:48:20;20.90;96.30
1880;DHT22;49285;49.002;8.390;2023-05-10T13:50:46;20.90;96.70
1880;DHT22;49285;49.002;8.390;2023-05-10T13:53:12;21.20;96.80
1880;DHT22;49285;49.002;8.390;2023-05-10T13:55:38;21.30;96.90
1880;DHT22;49285;49.002;8.390;2023-05-10T13:58:03;21.00;97.30
1880;DHT22;49285;49.002;8.390;2023-05-10T14:00:29;20.90;96.80
1880;DHT22;49285;49.002;8.390;2023-05-10T14:02:55;20.60;97.00
1880;DHT22;49285;49.002;8.390;2023-05-10T14:05:21;20.50;97.20
1880;DHT22;49285;49.002;8.390;2023-05-10T14:07:47;20.30;97.40
1880;DHT22;49285;49.002;8.390;2023-05-10T14:10:12;20.10;97.20
1880;DHT22;49285;49.002;8.390;2023-05-10T14:12:38;20.00;97.60
1880;DHT22;49285;49.002;8.390;2023-05-10T14:15:04;19.90;97.60
1880;DHT22;49285;49.002;8.390;2023-05-10T14:17:31;19.80;97.80
1880;DHT22;49285;49.002;8.390;2023-05-10T14:19:57;19.70;97.80
1880;DHT22;49285;49.002;8.390;2023-05-10T14:22:23;19.60;98.40
1880;DHT22;49285;49.002;8.390;2023-05-10T14:24:49;19.50;99.10
1880;DHT22;49285;49.002;8.390;2023-05-10T14:27:14;19.60;99.60
1880;DHT22;49285;49.002;8.390;2023-05-10T14:29:40;19.70;99.90
1880;DHT22;49285;49.002;8.390;2023-05-10T14:32:06;19.90;99.90
1880;DHT22;49285;49.002;8.390;2023-05-10T14:34:31;20.60;99.90
1880;DHT22;49285;49.002;8.390;2023-05-10T14:36:57;22.20;99.20
1880;DHT22;49285;49.002;8.390;2023-05-10T14:39:23;24.40;95.80
1880;DHT22;49285;49.002;8.390;2023-05-10T14:41:49;26.20;93.10
1880;DHT22;49285;49.002;8.390;2023-05-10T14:44:16;27.30;89.10
1880;DHT22;49285;49.002;8.390;2023-05-10T14:46:42;27.30;85.80
1880;DHT22;49285;49.002;8.390;2023-05-10T14:49:07;27.40;80.70
1880;DHT22;49285;49.002;8.390;2023-05-10T14:51:33;27.80;80.00
1880;DHT22;49285;49.002;8.390;2023-05-10T14:53:59;27.90;76.40
1880;DHT22;49285;49.002;8.390;2023-05-10T14:56:24;27.10;76.60
1880;DHT22;49285;49.002;8.390;2023-05-10T14:58:51;27.00;78.60
1880;DHT22;49285;49.002;8.390;2023-05-10T15:01:17;26.70;77.40
1880;DHT22;49285;49.002;8.390;2023-05-10T15:03:42;26.10;78.30
1880;DHT22;49285;49.002;8.390;2023-05-10T15:06:08;25.90;78.30
1880;DHT22;49285;49.002;8.390;2023-05-10T15:08:34;25.40;78.80
1880;DHT22;49285;49.002;8.390;2023-05-10T15:10:59;24.90;77.10
1880;DHT22;49285;49.002;8.390;2023-05-10T15:13:25;24.50;79.30
1880;DHT22;49285;49.002;8.390;2023-05-10T15:15:51;24.20;80.10
1880;DHT22;49285;49.002;8.390;2023-05-10T15:18:16;23.80;82.00
1880;DHT22;49285;49.002;8.390;2023-05-10T15:20:42;23.30;83.50
1880;DHT22;49285;49.002;8.390;2023-05-10T15:23:07;22.70;85.20
1880;DHT22;49285;49.002;8.390;2023-05-10T15:25:33;22.40;86.50
1880;DHT22;49285;49.002;8.390;2023-05-10T15:28:03;22.00;88.30
1880;DHT22;49285;49.002;8.390;2023-05-10T15:30:29;21.80;90.00
1880;DHT22;49285;49.002;8.390;2023-05-10T15:32:55;22.00;90.00
1880;DHT22;49285;49.002;8.390;2023-05-10T15:35:20;22.00;90.30
1880;DHT22;49285;49.002;8.390;2023-05-10T15:37:47;22.10;90.40
1880;DHT22;49285;49.002;8.390;2023-05-10T15:40:13;21.90;90.50
1880;DHT22;49285;49.002;8.390;2023-05-10T15:42:38;21.70;90.80
1880;DHT22;49285;49.002;8.390;2023-05-10T15:45:04;21.50;91.40
1880;DHT22;49285;49.002;8.390;2023-05-10T15:47:30;21.30;91.50
1880;DHT22;49285;49.002;8.390;2023-05-10T15:49:56;21.10;91.60
1880;DHT22;49285;49.002;8.390;2023-05-10T15:52:21;21.10;92.10
1880;DHT22;49285;49.002;8.390;2023-05-10T15:54:48;21.00;91.90
1880;DHT22;49285;49.002;8.390;2023-05-10T15:57:14;20.80;91.60
1880;DHT22;49285;49.002;8.390;2023-05-10T15:59:39;20.70;91.50
1880;DHT22;49285;49.002;8.390;2023-05-10T16:02:06;20.70;91.10
1880;DHT22;49285;49.002;8.390;2023-05-10T16:04:31;20.50;92.10
1880;DHT22;49285;49.002;8.390;2023-05-10T16:06:57;20.40;92.00
1880;DHT22;49285;49.002;8.390;2023-05-10T16:09:23;20.30;92.20